Time;durP1;ratioP1;P1;durP2;ratioP2;P2;SDS_P1;SDS_P2;PMS_P1;PMS_P2;Temp;Humidity;BMP_temperature;BMP_pressure;BME280_temperature;BME280_humidity;BME280_pressure;Samples;Min_cycle;Max_cycle;Signal;HPM_P1;HPM_P2
2022/12/13 00:01:27;;;;;;;19.58;7.15;;;-1.20;99.90;;;;;;4715310;30;20041;-76
2022/12/13 00:03:56;;;;;;;15.52;6.32;;;-1.20;99.90;;;;;;4732764;30;21254;-76
2022/12/13 00:06:24;;;;;;;18.42;6.22;;;-1.30;99.90;;;;;;4719042;30;20096;-76
2022/12/13 00:08:52;;;;;;;20.08;7.93;;;-1.20;99.90;;;;;;4713360;30;20063;-76
2022/12/13 00:11:20;;;;;;;23.92;8.60;;;-1.20;99.90;;;;;;4729085;30;20041;-76
2022/12/13 00:13:47;;;;;;;34.00;11.63;;;-1.30;99.90;;;;;;4713270;30;20044;-76
2022/12/13 00:16:17;;;;;;;22.35;8.02;;;-1.30;99.90;;;;;;4709939;30;20068;-76
2022/12/13 00:18:54;;;;;;;19.17;7.28;;;-1.30;99.90;;;;;;4731551;30;20141;-76
2022/12/13 00:21:24;;;;;;;16.58;7.35;;;-1.40;99.90;;;;;;4712383;30;20123;-76
2022/12/13 00:23:52;;;;;;;16.95;6.53;;;-1.40;99.90;;;;;;4713635;30;20564;-76
2022/12/13 00:26:24;;;;;;;23.55;8.05;;;-1.40;99.90;;;;;;4710780;30;20131;-76
2022/12/13 00:28:53;;;;;;;23.15;8.55;;;-1.40;99.90;;;;;;4728907;30;20477;-76
2022/12/13 00:31:22;;;;;;;26.80;9.93;;;-1.40;99.90;;;;;;4713858;30;20045;-76
2022/12/13 00:34:09;;;;;;;18.73;6.88;;;-1.40;99.90;;;;;;4715282;30;20556;-76
2022/12/13 00:36:36;;;;;;;17.40;7.88;;;-1.40;99.90;;;;;;4727730;30;20413;-76
2022/12/13 00:39:03;;;;;;;21.17;7.35;;;-1.40;99.90;;;;;;4727704;30;20057;-76
2022/12/13 00:41:33;;;;;;;21.02;8.13;;;-1.40;99.90;;;;;;4713738;30;20057;-76
2022/12/13 00:44:00;;;;;;;23.73;8.90;;;-1.40;99.90;;;;;;4714709;30;20048;-76
2022/12/13 00:46:28;;;;;;;19.95;7.10;;;-1.40;99.90;;;;;;4719158;30;20041;-76
2022/12/13 00:48:58;;;;;;;19.38;7.20;;;-1.40;99.90;;;;;;4714871;30;20041;-76
2022/12/13 00:51:28;;;;;;;16.70;7.00;;;-1.40;99.90;;;;;;4706822;30;20879;-75
2022/12/13 00:53:55;;;;;;;23.20;7.43;;;-1.50;99.90;;;;;;4728570;30;20037;-76
2022/12/13 00:56:25;;;;;;;22.10;7.00;;;-1.40;99.90;;;;;;4702012;30;20052;-76
2022/12/13 00:58:54;;;;;;;19.90;7.18;;;-1.50;99.90;;;;;;4698648;30;20071;-76
2022/12/13 01:01:24;;;;;;;18.80;6.80;;;-1.50;99.90;;;;;;4712759;30;20041;-76
2022/12/13 01:03:56;;;;;;;19.55;7.45;;;-1.50;99.90;;;;;;4697548;30;20114;-76
2022/12/13 01:06:37;;;;;;;17.08;6.32;;;-1.50;99.90;;;;;;4711092;30;20052;-76
2022/12/13 01:09:11;;;;;;;18.58;6.80;;;-1.50;99.90;;;;;;4715095;30;20413;-75
2022/12/13 01:11:38;;;;;;;18.77;7.10;;;-1.50;99.90;;;;;;4710937;30;20528;-75
2022/12/13 01:14:05;;;;;;;19.00;7.82;;;-1.60;99.90;;;;;;4726113;30;20036;-76
2022/12/13 01:16:32;;;;;;;20.58;8.23;;;-1.60;99.90;;;;;;4701401;30;20070;-76
2022/12/13 01:18:59;;;;;;;19.00;7.60;;;-1.60;99.90;;;;;;4714792;30;20053;-76
2022/12/13 01:21:27;;;;;;;19.30;7.72;;;-1.60;99.90;;;;;;4711630;30;20048;-76
2022/12/13 01:24:03;;;;;;;26.02;8.10;;;-1.60;99.90;;;;;;4714340;30;20055;-76
2022/12/13 01:26:31;;;;;;;24.52;9.15;;;-1.70;99.90;;;;;;4732993;30;20646;-75
2022/12/13 01:28:59;;;;;;;21.27;8.32;;;-1.70;99.90;;;;;;4712855;30;20060;-75
2022/12/13 01:31:26;;;;;;;23.05;7.15;;;-1.70;99.90;;;;;;4715009;30;20045;-76
2022/12/13 01:33:54;;;;;;;23.05;8.45;;;-1.70;99.90;;;;;;4711465;30;20118;-75
2022/12/13 01:36:22;;;;;;;20.80;7.43;;;-1.70;99.90;;;;;;4728819;30;20059;-75
2022/12/13 01:38:54;;;;;;;;;;;-1.70;99.90;;;;;;4703620;30;20086;-75
2022/12/13 01:41:27;;;;;;;19.42;5.68;;;-1.60;99.90;;;;;;4717166;30;20334;-75
2022/12/13 01:44:03;;;;;;;24.70;7.85;;;-1.70;99.90;;;;;;4702873;30;20142;-75
2022/12/13 01:46:34;;;;;;;23.45;7.18;;;-1.70;99.90;;;;;;4718133;30;20056;-75
2022/12/13 01:49:07;;;;;;;19.52;6.53;;;-1.70;99.90;;;;;;4701982;30;20119;-75
2022/12/13 01:51:56;;;;;;;19.25;6.45;;;-1.70;99.90;;;;;;4703867;30;20490;-75
2022/12/13 01:54:30;;;;;;;18.38;6.88;;;-1.70;99.90;;;;;;4722679;30;20144;-75
2022/12/13 01:57:04;;;;;;;25.40;7.88;;;-1.80;99.90;;;;;;4734972;30;20057;-75
2022/12/13 01:59:35;;;;;;;21.27;7.60;;;-1.80;99.90;;;;;;4734464;30;20042;-75
2022/12/13 02:02:03;;;;;;;17.35;7.10;;;-1.80;99.90;;;;;;4727196;30;20056;-75
2022/12/13 02:04:54;;;;;;;20.30;6.72;;;-1.90;99.90;;;;;;4711841;30;20148;-75
2022/12/13 02:07:26;;;;;;;19.05;6.22;;;-1.80;99.90;;;;;;4705126;30;20574;-75
2022/12/13 02:09:59;;;;;;;14.55;6.32;;;-1.80;99.90;;;;;;4730039;30;20045;-75
2022/12/13 02:12:29;;;;;;;21.85;7.15;;;-1.80;99.90;;;;;;4729996;30;20052;-75
2022/12/13 02:15:06;;;;;;;25.02;8.65;;;-1.80;99.90;;;;;;4727917;30;20044;-75
2022/12/13 02:17:54;;;;;;;23.85;8.70;;;-1.90;99.90;;;;;;4718525;30;20549;-75
2022/12/13 02:20:55;;;;;;;31.40;10.25;;;-1.90;99.90;;;;;;4731069;30;20631;-75
2022/12/13 02:23:22;;;;;;;35.42;12.57;;;-2.00;99.90;;;;;;4727954;30;20079;-75
2022/12/13 02:26:06;;;;;;;31.08;11.40;;;-2.00;99.90;;;;;;4704761;30;20498;-75
2022/12/13 02:28:59;;;;;;;34.17;11.75;;;-2.10;99.90;;;;;;4717171;30;20057;-75
2022/12/13 02:31:35;;;;;;;25.95;8.85;;;-2.10;99.90;;;;;;4703279;30;20056;-76
2022/12/13 02:34:09;;;;;;;32.42;11.73;;;-2.10;99.90;;;;;;4719847;30;20086;-76
2022/12/13 02:36:49;;;;;;;31.73;12.52;;;-2.10;99.90;;;;;;4717488;30;20095;-75
2022/12/13 02:39:19;;;;;;;27.70;9.40;;;-2.10;99.90;;;;;;4714808;30;20059;-75
2022/12/13 02:42:04;;;;;;;32.83;11.88;;;-2.00;99.90;;;;;;4714805;30;20118;-75
2022/12/13 02:44:42;;;;;;;34.60;11.43;;;-2.00;99.90;;;;;;4715899;30;20056;-76
2022/12/13 02:47:31;;;;;;;23.42;8.95;;;-2.00;99.90;;;;;;4729074;30;20053;-75
2022/12/13 02:50:04;;;;;;;34.47;11.00;;;-2.00;99.90;;;;;;4714849;30;20049;-75
2022/12/13 02:52:32;;;;;;;25.13;8.50;;;-2.00;99.90;;;;;;4731177;30;20048;-75
2022/12/13 02:55:05;;;;;;;26.63;8.98;;;-2.00;99.90;;;;;;4715863;30;20045;-75
2022/12/13 02:57:38;;;;;;;29.10;12.10;;;-2.00;99.90;;;;;;4726121;30;20493;-75
2022/12/13 03:00:08;;;;;;;21.75;7.60;;;-2.00;99.90;;;;;;4731412;30;20066;-75
2022/12/13 03:02:49;;;;;;;28.02;11.07;;;-2.00;99.90;;;;;;4717335;30;20045;-75
2022/12/13 03:08:37;;;;;;;25.17;9.13;;;-2.10;99.90;;;;;;4726987;30;20052;-75
2022/12/13 03:11:12;;;;;;;24.00;7.55;;;-2.10;99.90;;;;;;4729608;30;20786;-75
2022/12/13 03:14:19;;;;;;;27.55;10.07;;;-2.10;99.90;;;;;;4717465;30;20106;-75
2022/12/13 03:16:51;;;;;;;22.60;9.55;;;-2.20;99.90;;;;;;4648687;30;20061;-75
2022/12/13 03:19:19;;;;;;;23.70;8.50;;;-2.20;99.90;;;;;;4719378;30;20065;-75
2022/12/13 03:21:48;;;;;;;23.98;8.18;;;-2.20;99.90;;;;;;4713338;30;20041;-75
2022/12/13 03:24:17;;;;;;;24.02;8.43;;;-2.20;99.90;;;;;;4714233;30;20509;-75
2022/12/13 03:26:46;;;;;;;28.13;9.18;;;-2.10;99.90;;;;;;4729175;30;20045;-75
2022/12/13 03:29:13;;;;;;;25.63;9.98;;;-2.10;99.90;;;;;;4730416;30;20446;-75
2022/12/13 03:31:51;;;;;;;25.40;9.88;;;-2.20;99.90;;;;;;4713692;30;20045;-75
2022/12/13 03:34:18;;;;;;;24.30;9.32;;;-2.20;99.90;;;;;;4713721;30;20091;-75
2022/12/13 03:36:48;;;;;;;24.65;7.85;;;-2.20;99.90;;;;;;4731908;30;20053;-75
2022/12/13 03:39:15;;;;;;;21.52;7.75;;;-2.20;99.90;;;;;;4714033;30;20469;-75
2022/12/13 03:41:43;;;;;;;24.65;7.93;;;-2.20;99.90;;;;;;4701260;30;20092;-75
2022/12/13 03:44:10;;;;;;;18.88;6.80;;;-2.20;99.90;;;;;;4714584;30;20061;-75
2022/12/13 03:46:37;;;;;;;22.05;8.02;;;-2.10;99.90;;;;;;4713456;30;20083;-75
2022/12/13 03:49:04;;;;;;;16.58;6.93;;;-2.20;99.90;;;;;;4713492;30;20048;-75
2022/12/13 03:51:32;;;;;;;25.48;7.68;;;-2.20;99.90;;;;;;4714293;30;20664;-75
2022/12/13 03:53:59;;;;;;;22.23;7.88;;;-2.20;99.90;;;;;;4731119;30;20040;-75
2022/12/13 03:56:26;;;;;;;16.88;6.55;;;-2.20;99.90;;;;;;4713590;30;20052;-75
2022/12/13 03:58:53;;;;;;;30.27;8.60;;;-2.30;99.90;;;;;;4716036;30;20105;-75
2022/12/13 04:01:20;;;;;;;22.65;8.57;;;-2.30;99.90;;;;;;4712815;30;20578;-75
2022/12/13 04:03:48;;;;;;;22.88;8.85;;;-2.30;99.90;;;;;;4715701;30;20111;-75
2022/12/13 04:06:15;;;;;;;23.65;7.93;;;-2.40;99.90;;;;;;4715644;30;20033;-75
2022/12/13 04:08:50;;;;;;;40.95;15.88;;;-2.30;99.90;;;;;;4731637;30;20145;-75
2022/12/13 04:14:10;;;;;;;35.10;12.68;;;-2.40;99.90;;;;;;4719298;30;20052;-75
2022/12/13 04:16:38;;;;;;;30.85;10.88;;;-2.40;99.90;;;;;;4730624;30;20118;-75
2022/12/13 04:19:05;;;;;;;35.13;12.32;;;-2.40;99.90;;;;;;4730040;30;20087;-75
2022/12/13 04:21:32;;;;;;;42.40;13.35;;;-2.50;99.90;;;;;;4729948;30;20527;-75
2022/12/13 04:24:00;;;;;;;29.73;9.80;;;-2.50;99.90;;;;;;4720750;30;20045;-76
2022/12/13 04:26:27;;;;;;;33.58;12.07;;;-2.50;99.90;;;;;;4725243;30;20534;-76
2022/12/13 04:28:55;;;;;;;32.85;12.52;;;-2.50;99.90;;;;;;4713437;30;20037;-75
2022/12/13 04:31:22;;;;;;;29.42;10.63;;;-2.60;99.90;;;;;;4731784;30;20052;-75
2022/12/13 04:33:50;;;;;;;30.25;10.52;;;-2.60;99.90;;;;;;4725137;30;20108;-75
2022/12/13 04:36:24;;;;;;;25.00;10.00;;;-2.60;99.90;;;;;;4704987;30;20426;-75
2022/12/13 04:39:03;;;;;;;25.35;8.38;;;-2.60;99.90;;;;;;4728486;30;20055;-75
2022/12/13 04:41:50;;;;;;;28.73;9.27;;;-2.60;99.90;;;;;;4726519;30;20044;-75
2022/12/13 04:44:18;;;;;;;30.75;9.77;;;-2.50;99.90;;;;;;4699475;30;20064;-75
2022/12/13 04:46:56;;;;;;;25.55;8.20;;;-2.50;99.90;;;;;;4711397;30;20059;-75
2022/12/13 04:49:29;;;;;;;32.05;9.48;;;-2.50;99.90;;;;;;4714708;30;20063;-75
2022/12/13 04:51:56;;;;;;;26.73;8.95;;;-2.50;99.90;;;;;;4715097;30;20080;-75
2022/12/13 04:54:29;;;;;;;21.25;7.50;;;-2.50;99.90;;;;;;4713437;30;20049;-75
2022/12/13 04:57:05;;;;;;;26.65;9.02;;;-2.50;99.90;;;;;;4712863;30;20107;-75
2022/12/13 04:59:32;;;;;;;26.50;8.88;;;-2.50;99.90;;;;;;4729867;30;20386;-75
2022/12/13 05:01:59;;;;;;;31.17;9.70;;;-2.50;99.90;;;;;;4714684;30;20052;-75
2022/12/13 05:04:26;;;;;;;28.20;9.30;;;-2.50;99.90;;;;;;4714595;30;20060;-75
2022/12/13 05:06:59;;;;;;;34.53;10.82;;;-2.40;99.90;;;;;;4727908;30;20498;-75
2022/12/13 05:09:27;;;;;;;32.28;11.40;;;-2.40;99.90;;;;;;4716126;30;20143;-75
2022/12/13 05:11:54;;;;;;;27.77;9.10;;;-2.60;99.90;;;;;;4714370;30;20102;-75
2022/12/13 05:14:30;;;;;;;32.78;12.48;;;-2.50;99.90;;;;;;4713185;30;20045;-75
2022/12/13 05:16:58;;;;;;;28.95;12.35;;;-2.50;99.90;;;;;;4712967;30;20072;-75
2022/12/13 05:19:26;;;;;;;33.25;12.27;;;-2.50;99.90;;;;;;4728255;30;20167;-75
2022/12/13 05:21:59;;;;;;;35.30;11.18;;;-2.60;99.90;;;;;;4726309;30;20045;-75
2022/12/13 05:24:29;;;;;;;29.83;11.07;;;-2.60;99.90;;;;;;4729324;30;20079;-75
2022/12/13 05:26:57;;;;;;;25.92;10.07;;;-2.60;99.90;;;;;;4714257;30;20041;-75
2022/12/13 05:29:26;;;;;;;31.98;12.82;;;-2.60;99.90;;;;;;4698566;30;20054;-75
2022/12/13 05:31:53;;;;;;;31.73;11.38;;;-2.70;99.90;;;;;;4727476;30;20502;-75
2022/12/13 05:34:20;;;;;;;39.53;14.30;;;-2.70;99.90;;;;;;4707438;30;20057;-75
2022/12/13 05:36:47;;;;;;;40.20;13.77;;;-2.60;99.90;;;;;;4714368;30;20069;-75
2022/12/13 05:39:14;;;;;;;37.53;14.23;;;-2.70;99.90;;;;;;4699211;30;20060;-75
2022/12/13 05:41:56;;;;;;;34.28;11.20;;;-2.70;99.90;;;;;;4703753;30;20049;-75
2022/12/13 05:44:30;;;;;;;33.85;12.48;;;-2.70;99.90;;;;;;4705162;30;20110;-75
2022/12/13 05:46:58;;;;;;;35.08;11.38;;;-2.70;99.90;;;;;;4710031;30;20052;-75
2022/12/13 05:49:29;;;;;;;33.97;13.73;;;-2.70;99.90;;;;;;4715517;30;20529;-75
2022/12/13 05:51:57;;;;;;;44.60;15.30;;;-2.70;99.90;;;;;;4712420;30;20297;-75
2022/12/13 05:54:24;;;;;;;47.80;13.15;;;-2.80;99.90;;;;;;4725847;30;20130;-75
2022/12/13 05:56:51;;;;;;;43.90;14.18;;;-2.70;99.90;;;;;;4723650;30;20075;-75
2022/12/13 05:59:18;;;;;;;32.45;11.77;;;-2.80;99.90;;;;;;4708808;30;20060;-75
2022/12/13 06:01:45;;;;;;;38.67;13.25;;;-2.80;99.90;;;;;;4730710;30;20057;-75
2022/12/13 06:04:12;;;;;;;35.08;12.10;;;-2.30;99.90;;;;;;4715089;30;20056;-75
2022/12/13 06:06:49;;;;;;;32.10;11.25;;;-2.80;99.90;;;;;;4726752;30;20461;-75
2022/12/13 06:09:18;;;;;;;36.45;12.43;;;-2.90;99.90;;;;;;4712437;30;20532;-75
2022/12/13 06:11:45;;;;;;;36.38;11.18;;;-2.70;99.90;;;;;;4723918;30;20041;-75
2022/12/13 06:14:12;;;;;;;34.80;12.82;;;-2.80;99.90;;;;;;4721384;30;20064;-75
2022/12/13 06:16:50;;;;;;;79.80;23.80;;;-2.80;99.90;;;;;;4710753;30;20056;-75
2022/12/13 06:19:18;;;;;;;56.72;18.67;;;-2.80;99.90;;;;;;4728559;30;20079;-75
2022/12/13 06:21:45;;;;;;;51.80;17.88;;;-2.90;99.90;;;;;;4712946;30;20058;-75
2022/12/13 06:24:17;;;;;;;45.80;17.58;;;-2.90;99.90;;;;;;4714922;30;20513;-75
2022/12/13 06:26:45;;;;;;;40.42;16.15;;;-2.90;99.90;;;;;;4729096;30;20466;-75
2022/12/13 06:29:17;;;;;;;48.65;19.50;;;-2.90;99.90;;;;;;4715445;30;20044;-75
2022/12/13 06:31:56;;;;;;;54.00;20.05;;;-2.90;99.90;;;;;;4716459;30;20060;-75
2022/12/13 06:34:31;;;;;;;40.28;15.20;;;-2.90;99.90;;;;;;4719949;30;20539;-75
2022/12/13 06:36:58;;;;;;;34.83;13.25;;;-3.00;99.90;;;;;;4726013;30;20056;-75
2022/12/13 06:39:26;;;;;;;41.17;14.30;;;-2.90;99.90;;;;;;4715113;30;20057;-75
2022/12/13 06:42:04;;;;;;;91.35;29.17;;;-2.90;99.90;;;;;;4728158;30;20053;-75
2022/12/13 06:44:33;;;;;;;153.93;45.80;;;-2.90;99.90;;;;;;4726179;30;20277;-75
2022/12/13 06:47:00;;;;;;;117.93;41.10;;;-2.90;99.90;;;;;;4726631;30;20048;-75
2022/12/13 06:49:40;;;;;;;85.80;30.50;;;-2.80;99.90;;;;;;4730618;30;20140;-75
2022/12/13 06:52:10;;;;;;;61.35;22.67;;;-2.90;99.90;;;;;;4731954;30;20052;-75
2022/12/13 06:54:38;;;;;;;87.78;31.90;;;-2.90;99.90;;;;;;4714656;30;20102;-75
2022/12/13 06:57:05;;;;;;;93.95;35.50;;;-2.90;99.90;;;;;;4726520;30;20769;-75
2022/12/13 06:59:32;;;;;;;93.10;34.33;;;-2.90;99.90;;;;;;4698296;30;20067;-76
2022/12/13 07:02:00;;;;;;;76.03;31.92;;;-2.80;99.90;;;;;;4707584;30;20057;-78
2022/12/13 07:04:30;;;;;;;80.95;29.95;;;-2.60;99.90;;;;;;4681302;30;20080;-78
2022/12/13 07:06:58;;;;;;;74.32;21.92;;;-2.80;99.90;;;;;;4712211;30;20061;-79
2022/12/13 07:09:29;;;;;;;49.50;16.08;;;-2.80;99.90;;;;;;4697738;30;20060;-79
2022/12/13 07:11:57;;;;;;;48.15;16.45;;;-2.80;99.90;;;;;;4691818;30;20055;-79
2022/12/13 07:14:24;;;;;;;39.78;15.15;;;-2.70;99.90;;;;;;4698408;30;20053;-79
2022/12/13 07:16:52;;;;;;;39.67;14.00;;;-1.60;99.90;;;;;;4707627;30;20151;-79
2022/12/13 07:19:27;;;;;;;46.70;13.90;;;-3.10;99.90;;;;;;4684758;30;20057;-79
2022/12/13 07:22:04;;;;;;;32.85;11.00;;;-2.90;99.90;;;;;;4684847;30;20056;-78
2022/12/13 07:24:33;;;;;;;28.98;11.15;;;-2.70;99.90;;;;;;4698484;30;20068;-79
2022/12/13 07:27:02;;;;;;;34.03;12.05;;;-2.80;99.90;;;;;;4707388;30;20059;-79
2022/12/13 07:29:29;;;;;;;35.75;13.13;;;-2.10;99.90;;;;;;4698708;30;20057;-79
2022/12/13 07:31:57;;;;;;;41.95;14.35;;;-2.20;99.90;;;;;;4699402;30;20052;-79
2022/12/13 07:34:29;;;;;;;63.53;20.65;;;-2.60;99.90;;;;;;4698192;30;20075;-79
2022/12/13 07:36:56;;;;;;;68.93;22.08;;;-2.50;99.90;;;;;;4707889;30;20052;-79
2022/12/13 07:39:25;;;;;;;52.10;20.33;;;-2.90;99.90;;;;;;4718365;30;20064;-79
2022/12/13 07:41:56;;;;;;;58.28;20.85;;;-2.60;99.90;;;;;;4716977;30;20125;-79
2022/12/13 07:44:23;;;;;;;56.30;19.40;;;-2.50;99.90;;;;;;4700704;30;20145;-79
2022/12/13 07:46:51;;;;;;;52.78;18.83;;;-2.40;99.90;;;;;;4694308;30;20593;-79
2022/12/13 07:49:19;;;;;;;42.08;16.05;;;-2.40;99.90;;;;;;4724427;30;20107;-79
2022/12/13 07:51:46;;;;;;;58.45;21.60;;;-2.50;99.90;;;;;;4700059;30;20045;-79
2022/12/13 07:54:14;;;;;;;56.70;20.08;;;-2.30;99.90;;;;;;4715145;30;20049;-79
2022/12/13 07:56:41;;;;;;;71.38;29.58;;;-2.20;99.90;;;;;;4716385;30;20059;-80
2022/12/13 07:59:09;;;;;;;46.28;20.50;;;-2.20;99.90;;;;;;4726935;30;20050;-80
2022/12/13 08:01:37;;;;;;;78.95;27.75;;;-2.40;99.90;;;;;;4705765;30;20448;-79
2022/12/13 08:04:04;;;;;;;132.00;43.15;;;-2.00;99.90;;;;;;4701400;30;20045;-79
2022/12/13 08:06:38;;;;;;;51.05;19.33;;;-2.20;99.90;;;;;;4719385;30;20057;-79
2022/12/13 08:09:06;;;;;;;56.20;23.48;;;-2.00;99.90;;;;;;4698937;30;20056;-80
2022/12/13 08:11:33;;;;;;;52.92;20.27;;;-2.20;99.90;;;;;;4701715;30;20053;-79
2022/12/13 08:14:03;;;;;;;60.95;25.02;;;-1.90;99.90;;;;;;4706036;30;20078;-79
2022/12/13 08:16:30;;;;;;;42.67;17.08;;;-2.10;99.90;;;;;;4716265;30;20164;-80
2022/12/13 08:18:59;;;;;;;47.83;18.13;;;-1.80;99.90;;;;;;4700347;30;20064;-80
2022/12/13 08:21:40;;;;;;;32.53;14.82;;;-1.70;99.90;;;;;;4730958;30;20053;-80
2022/12/13 08:24:30;;;;;;;37.08;13.40;;;-1.90;99.90;;;;;;4715716;30;20041;-80
2022/12/13 08:26:59;;;;;;;35.85;14.20;;;-1.80;99.90;;;;;;4705362;30;20057;-80
2022/12/13 08:29:29;;;;;;;41.13;16.77;;;-1.80;99.90;;;;;;4701830;30;20048;-80
2022/12/13 08:32:17;;;;;;;35.30;14.55;;;-1.60;99.90;;;;;;4699768;30;20131;-80
2022/12/13 08:44:37;;;;;;;31.85;12.38;;;-1.30;99.90;;;;;;4884406;24;20042;-81
2022/12/13 08:47:08;;;;;;;82.35;29.45;;;-1.30;99.90;;;;;;4725040;30;20053;-81
2022/12/13 08:50:00;;;;;;;37.50;13.63;;;-1.20;99.90;;;;;;4716490;30;20072;-81
2022/12/13 09:17:20;;;;;;;53.13;23.30;;;-0.70;99.90;;;;;;5409648;24;20055;-80
2022/12/13 09:19:52;;;;;;;38.40;17.25;;;-0.50;99.90;;;;;;4754715;30;20059;-80
2022/12/13 09:22:28;;;;;;;32.22;12.48;;;-0.60;99.90;;;;;;4751966;30;20048;-80
2022/12/13 09:25:05;;;;;;;41.47;18.92;;;-0.60;99.90;;;;;;4748452;30;20074;-80
2022/12/13 09:27:42;;;;;;;31.58;12.43;;;-0.50;99.90;;;;;;4748715;30;20051;-80
2022/12/13 09:30:12;;;;;;;24.08;10.52;;;-0.40;99.90;;;;;;4741784;30;20044;-80
2022/12/13 09:32:40;;;;;;;29.08;10.07;;;-0.30;99.90;;;;;;4757386;30;20051;-80
2022/12/13 09:35:08;;;;;;;22.52;9.02;;;-0.40;99.90;;;;;;4745360;30;20056;-80
2022/12/13 09:37:36;;;;;;;21.95;10.30;;;-0.30;99.90;;;;;;4766528;30;20052;-80
2022/12/13 09:40:19;;;;;;;29.58;12.38;;;-0.20;99.90;;;;;;4743430;30;20060;-80
2022/12/13 09:43:00;;;;;;;27.13;10.73;;;-0.20;99.90;;;;;;4747152;30;20052;-80
2022/12/13 09:46:35;;;;;;;25.92;11.40;;;-0.10;99.90;;;;;;4759403;30;20036;-80
2022/12/13 09:59:00;;;;;;;20.30;9.60;;;0.20;97.80;;;;;;5396301;24;20272;-80
2022/12/13 10:36:40;;;;;;;12.73;6.17;;;0.80;96.70;;;;;;4739550;30;20060;-80
2022/12/13 10:39:39;;;;;;;13.38;6.22;;;0.80;95.50;;;;;;5490342;24;20046;-89
2022/12/13 10:59:57;;;;;;;16.63;6.15;;;1.10;93.70;;;;;;4828643;24;20276;-79
2022/12/13 11:02:37;;;;;;;15.77;6.55;;;1.00;94.60;;;;;;4763816;30;20051;-79
2022/12/13 11:11:57;;;;;;;13.93;6.00;;;1.20;93.40;;;;;;5010493;24;20055;-79
2022/12/13 11:14:31;;;;;;;13.88;5.80;;;1.20;94.50;;;;;;4761608;30;20056;-80
2022/12/13 11:17:07;;;;;;;14.50;5.72;;;1.10;93.40;;;;;;4743574;30;20048;-80
2022/12/13 11:19:55;;;;;;;13.70;5.70;;;1.00;93.40;;;;;;4736511;30;20059;-80
2022/12/13 11:25:40;;;;;;;14.60;5.28;;;1.30;92.80;;;;;;4971682;24;20052;-79
2022/12/13 11:28:30;;;;;;;14.52;6.30;;;1.20;92.70;;;;;;4742070;30;20053;-80
2022/12/13 11:34:34;;;;;;;15.98;6.03;;;1.50;92.50;;;;;;5257619;24;20037;-79
2022/12/13 11:41:54;;;;;;;13.88;6.13;;;1.40;91.20;;;;;;5753835;24;20042;31
2022/12/13 11:44:57;;;;;;;17.38;5.53;;;1.40;92.10;;;;;;4624668;31;20059;-79
2022/12/13 11:47:39;;;;;;;;;;;1.40;91.90;;;;;;4660800;30;20034;-80
2022/12/13 12:01:05;;;;;;;13.35;5.38;;;1.30;90.60;;;;;;5810754;24;20031;31
2022/12/13 12:04:28;;;;;;;11.50;4.80;;;1.30;90.70;;;;;;5548419;24;20026;31
2022/12/13 12:35:22;;;;;;;13.38;4.75;;;1.20;90.30;;;;;;5413666;24;20062;-79
2022/12/13 12:44:49;;;;;;;18.88;7.38;;;1.20;91.90;;;;;;5013853;24;20071;-80
2022/12/13 12:47:46;;;;;;;17.45;8.32;;;0.90;92.50;;;;;;4781915;30;20080;-80
2022/12/13 12:50:55;;;;;;;17.33;5.95;;;1.20;92.60;;;;;;4768520;30;20054;-80
2022/12/13 12:53:41;;;;;;;13.63;6.70;;;1.20;92.70;;;;;;4764385;30;20056;-80
2022/12/13 12:56:33;;;;;;;18.98;7.55;;;1.10;93.20;;;;;;4772202;30;20099;-80
2022/12/13 12:59:46;;;;;;;17.30;7.22;;;1.10;93.40;;;;;;4772002;30;20044;-80
2022/12/13 13:02:25;;;;;;;17.80;6.47;;;1.20;93.00;;;;;;4740829;30;20080;-80
2022/12/13 13:07:53;;;;;;;13.93;6.28;;;1.10;93.20;;;;;;4756621;30;20063;-80
2022/12/13 13:20:46;;;;;;;11.77;5.47;;;1.00;92.80;;;;;;5575502;24;20049;31
2022/12/13 13:23:20;;;;;;;12.95;4.93;;;1.00;92.80;;;;;;4718232;30;20083;-80
2022/12/13 13:32:40;;;;;;;12.43;5.75;;;0.90;93.20;;;;;;5065148;24;20045;-79
2022/12/13 13:35:46;;;;;;;13.85;5.22;;;0.60;93.30;;;;;;5435571;24;20112;-79
2022/12/13 13:38:46;;;;;;;15.65;7.03;;;0.70;92.90;;;;;;4747328;30;20091;-79
2022/12/13 13:41:35;;;;;;;;;;;0.60;93.20;;;;;;4753839;30;20061;-80
2022/12/13 13:44:43;;;;;;;12.52;5.82;;;0.80;93.20;;;;;;4829856;24;20028;-78
2022/12/13 13:47:25;;;;;;;13.63;5.20;;;0.80;93.60;;;;;;4735600;30;20048;-79
2022/12/13 13:53:52;;;;;;;16.65;5.65;;;0.70;92.90;;;;;;4906135;24;20039;-79
2022/12/13 14:00:49;;;;;;;16.65;7.65;;;0.60;93.20;;;;;;5107268;24;20037;31
2022/12/13 14:03:55;;;;;;;12.00;5.22;;;0.60;93.60;;;;;;4733670;30;20421;-80
2022/12/13 14:06:47;;;;;;;14.90;5.10;;;0.40;93.40;;;;;;4719788;30;20053;-80
2022/12/13 14:09:55;;;;;;;18.33;7.13;;;0.50;93.40;;;;;;4720650;30;20064;-80
2022/12/13 14:12:45;;;;;;;15.60;6.85;;;0.50;93.60;;;;;;4659094;30;20427;-79
2022/12/13 14:16:13;;;;;;;19.95;8.85;;;-0.50;93.50;;;;;;4712519;30;20053;-80
2022/12/13 14:19:06;;;;;;;13.48;5.72;;;0.40;94.00;;;;;;4691102;30;20062;-80
2022/12/13 14:21:53;;;;;;;12.25;5.32;;;0.40;94.30;;;;;;4683934;30;20077;-80
2022/12/13 14:25:00;;;;;;;12.23;5.57;;;0.10;94.20;;;;;;4658241;30;20069;-79
2022/12/13 14:27:43;;;;;;;15.10;5.80;;;0.10;94.40;;;;;;4633072;30;20062;-80
2022/12/13 14:30:20;;;;;;;18.58;6.32;;;0.70;94.80;;;;;;4657202;30;20047;-80
2022/12/13 14:32:59;;;;;;;14.77;5.93;;;0.30;94.70;;;;;;4648622;30;20128;-80
2022/12/13 14:36:13;;;;;;;20.65;7.50;;;0.10;95.20;;;;;;4628451;30;20090;-80
2022/12/13 14:39:05;;;;;;;14.85;5.72;;;0.10;95.40;;;;;;4637734;30;20186;-80
2022/12/13 14:41:57;;;;;;;16.58;6.00;;;0.10;95.80;;;;;;4626070;30;20082;-80
2022/12/13 14:44:48;;;;;;;15.57;6.03;;;0.10;96.20;;;;;;4624634;30;20070;-79
2022/12/13 14:47:17;;;;;;;16.38;6.60;;;-0.10;96.40;;;;;;4571546;31;20081;-80
2022/12/13 14:49:52;;;;;;;21.52;7.43;;;-0.10;96.80;;;;;;4564020;31;20064;-80
2022/12/13 14:52:26;;;;;;;26.92;8.07;;;0.00;97.20;;;;;;4566961;31;20132;-79
2022/12/13 14:54:59;;;;;;;19.10;7.18;;;-0.20;97.40;;;;;;4587061;31;20147;-80
2022/12/13 14:57:30;;;;;;;20.30;7.22;;;-0.30;97.90;;;;;;4591662;31;20064;-80
2022/12/13 15:00:01;;;;;;;17.83;6.03;;;-0.20;98.20;;;;;;4578341;31;20546;-80
2022/12/13 15:02:36;;;;;;;20.08;6.85;;;-0.10;98.60;;;;;;4610577;31;20068;-79
2022/12/13 15:05:04;;;;;;;23.02;6.90;;;-0.30;99.00;;;;;;4635225;31;20127;-80
2022/12/13 15:07:39;;;;;;;24.90;9.07;;;-0.50;99.20;;;;;;4622119;31;20067;-79
2022/12/13 15:10:19;;;;;;;28.85;10.35;;;-0.30;99.60;;;;;;4660544;30;20402;-80
2022/12/13 15:12:48;;;;;;;24.20;8.73;;;-0.40;99.70;;;;;;4673160;30;20061;-80
2022/12/13 15:15:27;;;;;;;19.05;7.85;;;-0.40;99.90;;;;;;4658357;30;20528;-80
2022/12/13 15:18:15;;;;;;;23.10;7.32;;;-0.40;99.90;;;;;;4677546;30;20577;-80
2022/12/13 15:20:45;;;;;;;21.27;8.20;;;-0.50;99.90;;;;;;4701251;30;20075;-80
2022/12/13 15:23:31;;;;;;;24.00;9.13;;;-0.50;99.90;;;;;;4712790;30;20143;-78
2022/12/13 15:26:21;;;;;;;62.35;19.75;;;-0.40;99.90;;;;;;4702978;30;20666;-77
2022/12/13 15:29:03;;;;;;;114.28;29.95;;;-0.50;99.90;;;;;;4709023;30;20061;-77
2022/12/13 15:31:37;;;;;;;83.38;23.35;;;-0.50;99.90;;;;;;4713506;30;20053;-78
2022/12/13 15:34:28;;;;;;;59.15;17.25;;;-0.60;99.90;;;;;;4702979;30;20053;-78
2022/12/13 15:36:59;;;;;;;81.40;21.55;;;-0.60;99.90;;;;;;4701639;30;20053;-78
2022/12/13 15:39:27;;;;;;;248.23;59.80;;;-0.60;99.90;;;;;;4722549;30;20399;-78
2022/12/13 15:41:55;;;;;;;245.07;63.47;;;-0.70;99.90;;;;;;4704694;30;20063;-78
2022/12/13 15:44:37;;;;;;;204.35;54.95;;;-0.70;99.90;;;;;;4702073;30;20045;-78
2022/12/13 15:47:11;;;;;;;67.50;24.98;;;-0.70;99.90;;;;;;4693886;30;20052;-78
2022/12/13 15:50:04;;;;;;;49.08;17.48;;;-0.70;99.90;;;;;;4716741;30;20048;-77
2022/12/13 15:52:40;;;;;;;57.35;18.42;;;-0.70;99.90;;;;;;4709964;30;20050;-77
2022/12/13 15:55:07;;;;;;;36.75;14.23;;;-0.80;99.90;;;;;;4680642;30;20580;-77
2022/12/13 15:57:48;;;;;;;42.58;13.63;;;-0.80;99.90;;;;;;4697943;30;20375;-77
2022/12/13 16:00:15;;;;;;;43.08;15.75;;;-0.80;99.90;;;;;;4700082;30;20526;-77
2022/12/13 16:02:54;;;;;;;58.70;22.33;;;-0.80;99.90;;;;;;4720546;30;20391;-77
2022/12/13 16:05:33;;;;;;;76.75;27.40;;;-0.90;99.90;;;;;;4709582;30;20499;-77
2022/12/13 16:08:04;;;;;;;42.88;17.45;;;-0.90;99.90;;;;;;4683822;30;20057;-77
2022/12/13 16:10:49;;;;;;;43.47;17.75;;;-0.90;99.90;;;;;;4717106;30;21989;-77
2022/12/13 16:13:28;;;;;;;43.60;17.42;;;-0.90;99.90;;;;;;4693452;30;20543;-78
2022/12/13 16:16:26;;;;;;;46.33;20.20;;;-1.00;99.90;;;;;;4698268;30;20053;-78
2022/12/13 16:18:56;;;;;;;32.38;15.00;;;-1.00;99.90;;;;;;4702336;30;20057;-78
2022/12/13 16:21:24;;;;;;;31.58;11.80;;;-1.00;99.90;;;;;;4698021;30;20055;-78
2022/12/13 16:23:52;;;;;;;31.70;13.90;;;-1.10;99.90;;;;;;4697828;30;20071;-78
2022/12/13 16:26:27;;;;;;;42.20;16.58;;;-1.10;99.90;;;;;;4713846;30;20082;-78
2022/12/13 16:28:58;;;;;;;35.58;16.52;;;-1.10;99.90;;;;;;4691847;30;20383;-78
2022/12/13 16:31:34;;;;;;;48.65;18.58;;;-1.20;99.90;;;;;;4713940;30;20506;-78